sensor_id;sensor_type;location;lat;lon;timestamp;pressure;altitude;pressure_sealevel;temperature;humidity
53116;BME280;39010;48.088;7.954;2022-12-07T00:01:38;98746.88;;;1.99;100.00
53116;BME280;39010;48.088;7.954;2022-12-07T00:04:06;98738.38;;;1.95;100.00
53116;BME280;39010;48.088;7.954;2022-12-07T00:06:37;98736.69;;;1.94;100.00
53116;BME280;39010;48.088;7.954;2022-12-07T00:09:05;98728.59;;;1.96;100.00
53116;BME280;39010;48.088;7.954;2022-12-07T00:11:32;98732.47;;;1.91;100.00
53116;BME280;39010;48.088;7.954;2022-12-07T00:14:01;98729.31;;;1.98;100.00
53116;BME280;39010;48.088;7.954;2022-12-07T00:16:30;98724.75;;;2.00;100.00
53116;BME280;39010;48.088;7.954;2022-12-07T00:18:57;98725.84;;;1.97;100.00
53116;BME280;39010;48.088;7.954;2022-12-07T00:21:29;98730.88;;;2.00;100.00
53116;BME280;39010;48.088;7.954;2022-12-07T00:23:56;98720.41;;;1.99;100.00
53116;BME280;39010;48.088;7.954;2022-12-07T00:26:26;98715.25;;;1.97;100.00
53116;BME280;39010;48.088;7.954;2022-12-07T00:28:54;98722.69;;;2.03;100.00
53116;BME280;39010;48.088;7.954;2022-12-07T00:31:24;98721.84;;;2.03;100.00
53116;BME280;39010;48.088;7.954;2022-12-07T00:33:51;98710.44;;;2.02;100.00
53116;BME280;39010;48.088;7.954;2022-12-07T00:36:22;98701.38;;;2.05;100.00
53116;BME280;39010;48.088;7.954;2022-12-07T00:38:53;98696.69;;;2.09;100.00
53116;BME280;39010;48.088;7.954;2022-12-07T00:41:22;98699.44;;;2.07;100.00
53116;BME280;39010;48.088;7.954;2022-12-07T00:43:49;98691.38;;;2.09;100.00
53116;BME280;39010;48.088;7.954;2022-12-07T00:46:16;98690.88;;;2.15;100.00
53116;BME280;39010;48.088;7.954;2022-12-07T00:48:44;98697.41;;;2.11;100.00
53116;BME280;39010;48.088;7.954;2022-12-07T00:51:12;98694.25;;;2.17;100.00
53116;BME280;39010;48.088;7.954;2022-12-07T00:53:39;98693.72;;;2.23;100.00
53116;BME280;39010;48.088;7.954;2022-12-07T00:56:09;98693.38;;;2.16;100.00
53116;BME280;39010;48.088;7.954;2022-12-07T00:58:36;98694.50;;;2.14;100.00
53116;BME280;39010;48.088;7.954;2022-12-07T01:01:03;98688.47;;;2.12;100.00
53116;BME280;39010;48.088;7.954;2022-12-07T01:03:30;98680.41;;;2.13;100.00
53116;BME280;39010;48.088;7.954;2022-12-07T01:05:57;98688.94;;;2.17;100.00
53116;BME280;39010;48.088;7.954;2022-12-07T01:08:25;98693.13;;;2.19;100.00
53116;BME280;39010;48.088;7.954;2022-12-07T01:11:00;98694.00;;;2.20;100.00
53116;BME280;39010;48.088;7.954;2022-12-07T01:13:28;98688.94;;;2.17;100.00
53116;BME280;39010;48.088;7.954;2022-12-07T01:16:00;98697.72;;;2.17;100.00
53116;BME280;39010;48.088;7.954;2022-12-07T01:18:28;98696.69;;;2.09;100.00
53116;BME280;39010;48.088;7.954;2022-12-07T01:23:29;98700.19;;;1.98;100.00
53116;BME280;39010;48.088;7.954;2022-12-07T01:26:00;98697.94;;;1.93;100.00
53116;BME280;39010;48.088;7.954;2022-12-07T01:28:27;98701.31;;;1.95;100.00
53116;BME280;39010;48.088;7.954;2022-12-07T01:33:34;98706.81;;;2.03;100.00
53116;BME280;39010;48.088;7.954;2022-12-07T01:36:15;98705.41;;;2.20;100.00
53116;BME280;39010;48.088;7.954;2022-12-07T01:38:42;98708.97;;;2.10;100.00
53116;BME280;39010;48.088;7.954;2022-12-07T01:41:09;98708.09;;;2.09;100.00
53116;BME280;39010;48.088;7.954;2022-12-07T01:43:36;98711.84;;;2.06;100.00
53116;BME280;39010;48.088;7.954;2022-12-07T01:46:03;98715.19;;;2.20;100.00
53116;BME280;39010;48.088;7.954;2022-12-07T01:48:35;98707.59;;;2.15;100.00
53116;BME280;39010;48.088;7.954;2022-12-07T01:51:08;98720.28;;;2.33;100.00
53116;BME280;39010;48.088;7.954;2022-12-07T01:53:37;98722.91;;;2.12;100.00
53116;BME280;39010;48.088;7.954;2022-12-07T01:56:05;98723.03;;;2.10;100.00
53116;BME280;39010;48.088;7.954;2022-12-07T01:58:34;98721.34;;;2.09;100.00
53116;BME280;39010;48.088;7.954;2022-12-07T02:01:01;98724.59;;;2.13;100.00
53116;BME280;39010;48.088;7.954;2022-12-07T02:03:32;98721.56;;;2.17;100.00
53116;BME280;39010;48.088;7.954;2022-12-07T02:06:00;98720.06;;;2.03;100.00
53116;BME280;39010;48.088;7.954;2022-12-07T02:08:27;98724.38;;;2.04;100.00
53116;BME280;39010;48.088;7.954;2022-12-07T02:10:54;98724.41;;;2.26;100.00
53116;BME280;39010;48.088;7.954;2022-12-07T02:13:30;98732.75;;;2.21;100.00
53116;BME280;39010;48.088;7.954;2022-12-07T02:19:21;98724.00;;;2.09;100.00
53116;BME280;39010;48.088;7.954;2022-12-07T02:22:00;98718.13;;;2.05;100.00
53116;BME280;39010;48.088;7.954;2022-12-07T02:24:45;98722.22;;;1.98;100.00
53116;BME280;39010;48.088;7.954;2022-12-07T02:27:46;98718.22;;;2.04;100.00
53116;BME280;39010;48.088;7.954;2022-12-07T02:30:19;98722.22;;;1.98;100.00
53116;BME280;39010;48.088;7.954;2022-12-07T02:33:00;98715.16;;;1.87;100.00
53116;BME280;39010;48.088;7.954;2022-12-07T02:35:37;98718.25;;;1.92;100.00
53116;BME280;39010;48.088;7.954;2022-12-07T02:38:14;98717.41;;;2.03;100.00
53116;BME280;39010;48.088;7.954;2022-12-07T02:41:02;98714.50;;;2.06;100.00
53116;BME280;39010;48.088;7.954;2022-12-07T02:43:34;98719.09;;;2.04;100.00
53116;BME280;39010;48.088;7.954;2022-12-07T02:46:09;98714.75;;;2.03;100.00
53116;BME280;39010;48.088;7.954;2022-12-07T02:48:37;98720.69;;;1.84;100.00
53116;BME280;39010;48.088;7.954;2022-12-07T02:51:05;98720.59;;;1.74;100.00
53116;BME280;39010;48.088;7.954;2022-12-07T02:53:32;98722.28;;;1.75;100.00
53116;BME280;39010;48.088;7.954;2022-12-07T02:56:05;98723.72;;;1.80;100.00
53116;BME280;39010;48.088;7.954;2022-12-07T02:59:06;98716.84;;;1.77;100.00
53116;BME280;39010;48.088;7.954;2022-12-07T03:02:13;98715.22;;;1.76;100.00
53116;BME280;39010;48.088;7.954;2022-12-07T03:15:40;98718.00;;;1.96;100.00
53116;BME280;39010;48.088;7.954;2022-12-07T03:18:09;98717.66;;;2.00;100.00
53116;BME280;39010;48.088;7.954;2022-12-07T03:20:38;98715.00;;;2.00;100.00
53116;BME280;39010;48.088;7.954;2022-12-07T03:23:08;98710.22;;;1.94;100.00
53116;BME280;39010;48.088;7.954;2022-12-07T03:25:41;98717.03;;;1.97;100.00
53116;BME280;39010;48.088;7.954;2022-12-07T03:28:10;98712.59;;;1.97;100.00
53116;BME280;39010;48.088;7.954;2022-12-07T03:30:48;98712.94;;;2.04;100.00
53116;BME280;39010;48.088;7.954;2022-12-07T03:33:32;98711.97;;;2.05;100.00
53116;BME280;39010;48.088;7.954;2022-12-07T03:36:05;98701.84;;;2.10;100.00
53116;BME280;39010;48.088;7.954;2022-12-07T03:38:58;98698.63;;;2.06;100.00
53116;BME280;39010;48.088;7.954;2022-12-07T03:41:29;98696.31;;;2.02;100.00
53116;BME280;39010;48.088;7.954;2022-12-07T03:43:57;98689.03;;;1.94;100.00
53116;BME280;39010;48.088;7.954;2022-12-07T03:46:36;98700.94;;;1.88;100.00
53116;BME280;39010;48.088;7.954;2022-12-07T03:49:21;98698.19;;;1.90;100.00
53116;BME280;39010;48.088;7.954;2022-12-07T03:51:55;98689.50;;;1.99;100.00
53116;BME280;39010;48.088;7.954;2022-12-07T03:54:27;98687.72;;;1.88;100.00
53116;BME280;39010;48.088;7.954;2022-12-07T03:56:57;98687.00;;;1.86;100.00
53116;BME280;39010;48.088;7.954;2022-12-07T03:59:25;98693.84;;;1.89;100.00
53116;BME280;39010;48.088;7.954;2022-12-07T04:01:54;98685.41;;;1.95;100.00
53116;BME280;39010;48.088;7.954;2022-12-07T04:04:22;98693.13;;;1.87;100.00
53116;BME280;39010;48.088;7.954;2022-12-07T04:06:49;98688.81;;;1.86;100.00
53116;BME280;39010;48.088;7.954;2022-12-07T04:09:16;98694.94;;;1.86;100.00
53116;BME280;39010;48.088;7.954;2022-12-07T04:11:43;98693.00;;;1.88;100.00
53116;BME280;39010;48.088;7.954;2022-12-07T04:14:10;98687.50;;;1.80;100.00
53116;BME280;39010;48.088;7.954;2022-12-07T04:16:53;98691.38;;;1.76;100.00
53116;BME280;39010;48.088;7.954;2022-12-07T04:19:25;98695.41;;;1.91;100.00
53116;BME280;39010;48.088;7.954;2022-12-07T04:21:52;98691.06;;;1.90;100.00
53116;BME280;39010;48.088;7.954;2022-12-07T04:24:19;98686.41;;;1.83;100.00
53116;BME280;39010;48.088;7.954;2022-12-07T04:26:46;98688.09;;;1.84;100.00
53116;BME280;39010;48.088;7.954;2022-12-07T04:29:13;98687.25;;;1.83;100.00
53116;BME280;39010;48.088;7.954;2022-12-07T04:31:40;98682.09;;;1.82;100.00
53116;BME280;39010;48.088;7.954;2022-12-07T04:34:07;98676.78;;;1.82;100.00
53116;BME280;39010;48.088;7.954;2022-12-07T04:36:34;98685.69;;;1.81;100.00
53116;BME280;39010;48.088;7.954;2022-12-07T04:39:01;98680.25;;;1.82;100.00
53116;BME280;39010;48.088;7.954;2022-12-07T04:41:27;98684.22;;;1.88;100.00
53116;BME280;39010;48.088;7.954;2022-12-07T04:43:59;98684.59;;;1.83;100.00
53116;BME280;39010;48.088;7.954;2022-12-07T04:46:27;98677.28;;;1.75;100.00
53116;BME280;39010;48.088;7.954;2022-12-07T04:48:55;98680.44;;;1.69;100.00
53116;BME280;39010;48.088;7.954;2022-12-07T04:51:24;98672.38;;;1.71;100.00
53116;BME280;39010;48.088;7.954;2022-12-07T04:53:52;98669.88;;;1.58;100.00
53116;BME280;39010;48.088;7.954;2022-12-07T04:56:20;98664.34;;;1.61;100.00
53116;BME280;39010;48.088;7.954;2022-12-07T04:58:47;98662.41;;;1.63;100.00
53116;BME280;39010;48.088;7.954;2022-12-07T05:01:16;98674.91;;;1.72;100.00
53116;BME280;39010;48.088;7.954;2022-12-07T05:03:43;98668.91;;;1.91;100.00
53116;BME280;39010;48.088;7.954;2022-12-07T05:06:10;98677.03;;;1.79;100.00
53116;BME280;39010;48.088;7.954;2022-12-07T05:08:39;98681.03;;;1.73;100.00
53116;BME280;39010;48.088;7.954;2022-12-07T05:11:07;98676.56;;;1.73;100.00
53116;BME280;39010;48.088;7.954;2022-12-07T05:13:34;98675.84;;;1.71;100.00
53116;BME280;39010;48.088;7.954;2022-12-07T05:16:01;98674.19;;;1.70;100.00
53116;BME280;39010;48.088;7.954;2022-12-07T05:18:27;98675.38;;;1.66;100.00
53116;BME280;39010;48.088;7.954;2022-12-07T05:20:54;98672.41;;;1.59;100.00
53116;BME280;39010;48.088;7.954;2022-12-07T05:23:20;98669.53;;;1.63;100.00
53116;BME280;39010;48.088;7.954;2022-12-07T05:25:47;98673.50;;;1.57;100.00
53116;BME280;39010;48.088;7.954;2022-12-07T05:28:13;98677.94;;;1.56;100.00
53116;BME280;39010;48.088;7.954;2022-12-07T05:30:39;98678.72;;;1.36;100.00
53116;BME280;39010;48.088;7.954;2022-12-07T05:33:06;98684.47;;;1.41;100.00
53116;BME280;39010;48.088;7.954;2022-12-07T05:35:32;98680.00;;;1.41;100.00
53116;BME280;39010;48.088;7.954;2022-12-07T05:37:59;98676.78;;;1.38;100.00
53116;BME280;39010;48.088;7.954;2022-12-07T05:40:25;98672.94;;;1.30;100.00
53116;BME280;39010;48.088;7.954;2022-12-07T05:42:52;98675.69;;;1.40;100.00
53116;BME280;39010;48.088;7.954;2022-12-07T05:45:18;98672.22;;;1.40;100.00
53116;BME280;39010;48.088;7.954;2022-12-07T05:47:45;98668.94;;;1.36;100.00
53116;BME280;39010;48.088;7.954;2022-12-07T05:50:11;98676.06;;;1.24;100.00
53116;BME280;39010;48.088;7.954;2022-12-07T05:52:37;98680.97;;;1.40;100.00
53116;BME280;39010;48.088;7.954;2022-12-07T05:55:04;98677.88;;;1.24;100.00
53116;BME280;39010;48.088;7.954;2022-12-07T05:57:33;98678.59;;;1.26;100.00
53116;BME280;39010;48.088;7.954;2022-12-07T05:59:59;98680.03;;;1.30;100.00
53116;BME280;39010;48.088;7.954;2022-12-07T06:02:26;98698.53;;;1.18;100.00
53116;BME280;39010;48.088;7.954;2022-12-07T06:04:53;98683.63;;;1.17;100.00
53116;BME280;39010;48.088;7.954;2022-12-07T06:07:19;98688.09;;;1.06;100.00
53116;BME280;39010;48.088;7.954;2022-12-07T06:09:46;98684.84;;;1.13;100.00
53116;BME280;39010;48.088;7.954;2022-12-07T06:12:13;98680.41;;;1.02;100.00
53116;BME280;39010;48.088;7.954;2022-12-07T06:14:58;98672.34;;;1.04;100.00
53116;BME280;39010;48.088;7.954;2022-12-07T06:17:24;98677.53;;;1.06;100.00
53116;BME280;39010;48.088;7.954;2022-12-07T06:19:51;98679.78;;;0.99;100.00
53116;BME280;39010;48.088;7.954;2022-12-07T06:22:17;98684.59;;;0.94;100.00
53116;BME280;39010;48.088;7.954;2022-12-07T06:24:44;98677.50;;;0.83;100.00
53116;BME280;39010;48.088;7.954;2022-12-07T06:27:10;98680.16;;;0.71;100.00
53116;BME280;39010;48.088;7.954;2022-12-07T06:29:37;98684.09;;;0.54;100.00
53116;BME280;39010;48.088;7.954;2022-12-07T06:32:04;98678.81;;;0.54;100.00
53116;BME280;39010;48.088;7.954;2022-12-07T06:34:31;98682.19;;;0.56;100.00
53116;BME280;39010;48.088;7.954;2022-12-07T06:36:57;98684.78;;;0.45;100.00
53116;BME280;39010;48.088;7.954;2022-12-07T06:39:26;98691.59;;;0.36;100.00
53116;BME280;39010;48.088;7.954;2022-12-07T06:41:52;98700.84;;;0.31;100.00
53116;BME280;39010;48.088;7.954;2022-12-07T06:44:21;98702.72;;;0.17;100.00
53116;BME280;39010;48.088;7.954;2022-12-07T06:46:49;98704.13;;;0.10;100.00
53116;BME280;39010;48.088;7.954;2022-12-07T06:49:15;98702.03;;;0.02;100.00
53116;BME280;39010;48.088;7.954;2022-12-07T06:51:42;98712.09;;;0.21;100.00
53116;BME280;39010;48.088;7.954;2022-12-07T06:54:10;98709.16;;;0.13;100.00
53116;BME280;39010;48.088;7.954;2022-12-07T06:56:37;98708.44;;;0.11;100.00
53116;BME280;39010;48.088;7.954;2022-12-07T06:59:04;98714.41;;;0.02;100.00
53116;BME280;39010;48.088;7.954;2022-12-07T07:01:33;98724.22;;;-0.01;100.00
53116;BME280;39010;48.088;7.954;2022-12-07T07:04:01;98717.94;;;-0.11;100.00
53116;BME280;39010;48.088;7.954;2022-12-07T07:06:28;98728.34;;;-0.21;100.00
53116;BME280;39010;48.088;7.954;2022-12-07T07:08:54;98724.22;;;-0.25;100.00
53116;BME280;39010;48.088;7.954;2022-12-07T07:11:21;98721.91;;;-0.30;100.00
53116;BME280;39010;48.088;7.954;2022-12-07T07:13:48;98722.03;;;-0.31;100.00
53116;BME280;39010;48.088;7.954;2022-12-07T07:16:16;98727.41;;;-0.33;100.00
53116;BME280;39010;48.088;7.954;2022-12-07T07:18:42;98725.50;;;-0.31;100.00
53116;BME280;39010;48.088;7.954;2022-12-07T07:21:09;98729.94;;;-0.31;100.00
53116;BME280;39010;48.088;7.954;2022-12-07T07:23:36;98737.44;;;-0.25;100.00
53116;BME280;39010;48.088;7.954;2022-12-07T07:26:02;98733.31;;;-0.29;100.00
53116;BME280;39010;48.088;7.954;2022-12-07T07:28:29;98735.00;;;-0.28;100.00
53116;BME280;39010;48.088;7.954;2022-12-07T07:30:55;98743.03;;;-0.30;100.00
53116;BME280;39010;48.088;7.954;2022-12-07T07:33:22;98739.88;;;-0.35;100.00
53116;BME280;39010;48.088;7.954;2022-12-07T07:35:49;98736.50;;;-0.37;100.00
53116;BME280;39010;48.088;7.954;2022-12-07T07:38:15;98743.47;;;-0.36;100.00
53116;BME280;39010;48.088;7.954;2022-12-07T07:40:42;98740.13;;;-0.51;100.00
53116;BME280;39010;48.088;7.954;2022-12-07T07:43:08;98744.03;;;-0.56;100.00
53116;BME280;39010;48.088;7.954;2022-12-07T07:45:35;98748.34;;;-0.42;100.00
53116;BME280;39010;48.088;7.954;2022-12-07T07:48:02;98750.75;;;-0.39;100.00
53116;BME280;39010;48.088;7.954;2022-12-07T07:50:28;98757.38;;;-0.34;100.00
53116;BME280;39010;48.088;7.954;2022-12-07T07:52:57;98759.94;;;-0.45;100.00
53116;BME280;39010;48.088;7.954;2022-12-07T07:55:24;98756.34;;;-0.44;100.00
53116;BME280;39010;48.088;7.954;2022-12-07T07:57:50;98748.66;;;-0.47;100.00
53116;BME280;39010;48.088;7.954;2022-12-07T08:00:21;98750.84;;;-0.41;100.00
53116;BME280;39010;48.088;7.954;2022-12-07T08:02:47;98756.22;;;-0.30;100.00
53116;BME280;39010;48.088;7.954;2022-12-07T08:05:14;98754.81;;;-0.22;100.00
53116;BME280;39010;48.088;7.954;2022-12-07T08:07:41;98752.19;;;-0.22;100.00
53116;BME280;39010;48.088;7.954;2022-12-07T08:10:10;98760.16;;;-0.11;100.00
53116;BME280;39010;48.088;7.954;2022-12-07T08:12:38;98752.88;;;-0.07;100.00
53116;BME280;39010;48.088;7.954;2022-12-07T08:15:27;98756.19;;;0.08;100.00
53116;BME280;39010;48.088;7.954;2022-12-07T08:17:54;98765.06;;;0.07;100.00
53116;BME280;39010;48.088;7.954;2022-12-07T08:20:21;98756.25;;;0.19;100.00
53116;BME280;39010;48.088;7.954;2022-12-07T08:22:47;98759.88;;;0.29;100.00
53116;BME280;39010;48.088;7.954;2022-12-07T08:25:23;98751.00;;;0.31;100.00
53116;BME280;39010;48.088;7.954;2022-12-07T08:27:51;98760.22;;;0.49;100.00
53116;BME280;39010;48.088;7.954;2022-12-07T08:30:18;98756.47;;;0.52;100.00
53116;BME280;39010;48.088;7.954;2022-12-07T08:32:45;98758.66;;;0.58;100.00
53116;BME280;39010;48.088;7.954;2022-12-07T08:35:12;98754.47;;;0.55;100.00
53116;BME280;39010;48.088;7.954;2022-12-07T08:37:39;98764.06;;;0.56;100.00
53116;BME280;39010;48.088;7.954;2022-12-07T08:40:10;98766.25;;;0.63;100.00
53116;BME280;39010;48.088;7.954;2022-12-07T08:42:36;98757.13;;;0.67;100.00
53116;BME280;39010;48.088;7.954;2022-12-07T08:45:11;98761.00;;;0.74;100.00
53116;BME280;39010;48.088;7.954;2022-12-07T08:47:52;98760.03;;;0.75;100.00
53116;BME280;39010;48.088;7.954;2022-12-07T08:50:21;98760.00;;;0.64;100.00
53116;BME280;39010;48.088;7.954;2022-12-07T08:52:52;98768.91;;;0.63;100.00
53116;BME280;39010;48.088;7.954;2022-12-07T08:55:20;98761.78;;;0.63;100.00
53116;BME280;39010;48.088;7.954;2022-12-07T08:57:47;98764.06;;;0.56;100.00
53116;BME280;39010;48.088;7.954;2022-12-07T09:00:14;98762.78;;;0.73;100.00
53116;BME280;39010;48.088;7.954;2022-12-07T09:02:41;98761.97;;;0.96;100.00
53116;BME280;39010;48.088;7.954;2022-12-07T09:05:07;98752.16;;;1.09;100.00
53116;BME280;39010;48.088;7.954;2022-12-07T09:07:43;98747.25;;;1.16;100.00
53116;BME280;39010;48.088;7.954;2022-12-07T09:10:11;98756.72;;;1.18;100.00
53116;BME280;39010;48.088;7.954;2022-12-07T09:12:38;98750.69;;;1.05;100.00
53116;BME280;39010;48.088;7.954;2022-12-07T09:15:05;98755.97;;;0.94;100.00
53116;BME280;39010;48.088;7.954;2022-12-07T09:17:33;98767.13;;;0.86;100.00
53116;BME280;39010;48.088;7.954;2022-12-07T09:19:59;98757.06;;;1.02;100.00
53116;BME280;39010;48.088;7.954;2022-12-07T09:22:29;98762.72;;;1.09;100.00
53116;BME280;39010;48.088;7.954;2022-12-07T09:24:57;98762.38;;;1.02;100.00
53116;BME280;39010;48.088;7.954;2022-12-07T09:27:24;98756.97;;;1.15;100.00
53116;BME280;39010;48.088;7.954;2022-12-07T09:29:51;98761.53;;;1.25;100.00
53116;BME280;39010;48.088;7.954;2022-12-07T09:32:17;98758.53;;;1.29;100.00
53116;BME280;39010;48.088;7.954;2022-12-07T09:34:44;98753.25;;;1.41;100.00
53116;BME280;39010;48.088;7.954;2022-12-07T09:37:11;98752.88;;;1.45;100.00
53116;BME280;39010;48.088;7.954;2022-12-07T09:39:37;98752.38;;;1.63;100.00
53116;BME280;39010;48.088;7.954;2022-12-07T09:42:28;98744.94;;;1.57;100.00
53116;BME280;39010;48.088;7.954;2022-12-07T09:44:56;98755.28;;;1.60;100.00
53116;BME280;39010;48.088;7.954;2022-12-07T09:47:23;98754.56;;;1.46;100.00
53116;BME280;39010;48.088;7.954;2022-12-07T09:49:49;98751.56;;;1.28;100.00
53116;BME280;39010;48.088;7.954;2022-12-07T09:52:27;98749.66;;;1.19;100.00
53116;BME280;39010;48.088;7.954;2022-12-07T09:55:03;98747.09;;;1.29;100.00
53116;BME280;39010;48.088;7.954;2022-12-07T09:57:31;98743.25;;;1.33;100.00
53116;BME280;39010;48.088;7.954;2022-12-07T10:00:04;98730.28;;;1.41;100.00
53116;BME280;39010;48.088;7.954;2022-12-07T10:02:40;98729.91;;;1.57;100.00
53116;BME280;39010;48.088;7.954;2022-12-07T10:05:14;98735.03;;;1.82;100.00
53116;BME280;39010;48.088;7.954;2022-12-07T10:07:49;98728.78;;;1.83;100.00
53116;BME280;39010;48.088;7.954;2022-12-07T10:10:25;98723.38;;;2.17;100.00
53116;BME280;39010;48.088;7.954;2022-12-07T10:13:02;98720.38;;;2.43;100.00
53116;BME280;39010;48.088;7.954;2022-12-07T10:15:58;98714.81;;;2.67;100.00
53116;BME280;39010;48.088;7.954;2022-12-07T10:18:33;98705.84;;;2.89;100.00
53116;BME280;39010;48.088;7.954;2022-12-07T10:21:04;98703.28;;;3.40;100.00
53116;BME280;39010;48.088;7.954;2022-12-07T10:23:30;98706.38;;;3.45;99.03
53116;BME280;39010;48.088;7.954;2022-12-07T10:25:57;98703.56;;;3.97;99.26
53116;BME280;39010;48.088;7.954;2022-12-07T10:28:33;98697.00;;;4.11;92.56
53116;BME280;39010;48.088;7.954;2022-12-07T10:31:19;98702.31;;;4.31;91.46
53116;BME280;39010;48.088;7.954;2022-12-07T10:33:55;98699.53;;;4.23;90.82
53116;BME280;39010;48.088;7.954;2022-12-07T10:36:34;98690.78;;;4.70;92.62
53116;BME280;39010;48.088;7.954;2022-12-07T10:39:12;98693.03;;;4.65;90.03
53116;BME280;39010;48.088;7.954;2022-12-07T10:41:59;98685.91;;;5.13;84.29
53116;BME280;39010;48.088;7.954;2022-12-07T10:44:31;98671.22;;;5.37;79.49
53116;BME280;39010;48.088;7.954;2022-12-07T10:49:36;98660.25;;;5.68;75.30
53116;BME280;39010;48.088;7.954;2022-12-07T10:52:27;98659.53;;;5.94;74.41
53116;BME280;39010;48.088;7.954;2022-12-07T10:57:47;98646.22;;;7.17;74.17
53116;BME280;39010;48.088;7.954;2022-12-07T11:00:23;98641.75;;;6.83;70.39
53116;BME280;39010;48.088;7.954;2022-12-07T11:13:23;98626.88;;;6.81;59.64
53116;BME280;39010;48.088;7.954;2022-12-07T11:18:37;98628.00;;;6.70;60.52
53116;BME280;39010;48.088;7.954;2022-12-07T11:24:16;98619.94;;;6.17;60.68
53116;BME280;39010;48.088;7.954;2022-12-07T11:27:01;98607.84;;;6.49;62.80
53116;BME280;39010;48.088;7.954;2022-12-07T11:29:55;98609.50;;;6.76;64.30
53116;BME280;39010;48.088;7.954;2022-12-07T11:32:42;98618.63;;;6.66;65.36
53116;BME280;39010;48.088;7.954;2022-12-07T11:37:44;98611.34;;;6.49;61.58
53116;BME280;39010;48.088;7.954;2022-12-07T11:40:31;98601.19;;;6.80;61.80
53116;BME280;39010;48.088;7.954;2022-12-07T11:45:41;98606.53;;;6.80;60.27
53116;BME280;39010;48.088;7.954;2022-12-07T11:48:22;98600.41;;;6.61;62.96
53116;BME280;39010;48.088;7.954;2022-12-07T11:50:56;98592.25;;;6.62;62.34
53116;BME280;39010;48.088;7.954;2022-12-07T11:53:33;98594.16;;;6.78;60.64
53116;BME280;39010;48.088;7.954;2022-12-07T11:56:08;98596.50;;;6.47;60.82
53116;BME280;39010;48.088;7.954;2022-12-07T12:06:38;98577.47;;;6.42;63.36
53116;BME280;39010;48.088;7.954;2022-12-07T12:09:14;98575.19;;;6.29;62.95
53116;BME280;39010;48.088;7.954;2022-12-07T12:18:22;98571.84;;;6.00;61.73
53116;BME280;39010;48.088;7.954;2022-12-07T12:21:02;98564.69;;;6.01;62.13
53116;BME280;39010;48.088;7.954;2022-12-07T12:23:39;98558.56;;;6.09;60.46
53116;BME280;39010;48.088;7.954;2022-12-07T12:26:32;98557.22;;;5.86;64.81
53116;BME280;39010;48.088;7.954;2022-12-07T12:31:35;98554.41;;;6.06;64.97
53116;BME280;39010;48.088;7.954;2022-12-07T12:36:50;98548.63;;;6.45;64.86
53116;BME280;39010;48.088;7.954;2022-12-07T12:39:17;98546.34;;;6.51;64.03
53116;BME280;39010;48.088;7.954;2022-12-07T12:54:36;98532.28;;;6.67;61.75
53116;BME280;39010;48.088;7.954;2022-12-07T12:57:30;98533.09;;;6.67;60.45
53116;BME280;39010;48.088;7.954;2022-12-07T12:59:58;98534.63;;;6.43;58.20
53116;BME280;39010;48.088;7.954;2022-12-07T13:18:36;98513.28;;;6.43;61.19
53116;BME280;39010;48.088;7.954;2022-12-07T13:26:36;98516.53;;;6.29;60.28
53116;BME280;39010;48.088;7.954;2022-12-07T13:31:49;98509.59;;;6.36;60.30
53116;BME280;39010;48.088;7.954;2022-12-07T13:37:02;98508.28;;;5.87;63.78
53116;BME280;39010;48.088;7.954;2022-12-07T13:39:35;98509.81;;;5.54;68.55
53116;BME280;39010;48.088;7.954;2022-12-07T13:42:20;98501.00;;;5.35;73.53
53116;BME280;39010;48.088;7.954;2022-12-07T13:44:48;98508.97;;;4.99;74.86
53116;BME280;39010;48.088;7.954;2022-12-07T13:47:20;98494.09;;;5.06;70.96
53116;BME280;39010;48.088;7.954;2022-12-07T13:49:56;98498.06;;;4.92;71.28
53116;BME280;39010;48.088;7.954;2022-12-07T13:52:28;98500.28;;;4.97;71.97
53116;BME280;39010;48.088;7.954;2022-12-07T13:55:00;98504.44;;;4.81;72.36
53116;BME280;39010;48.088;7.954;2022-12-07T13:57:29;98499.41;;;4.78;72.83
53116;BME280;39010;48.088;7.954;2022-12-07T13:59:57;98501.22;;;4.78;72.86
53116;BME280;39010;48.088;7.954;2022-12-07T14:02:29;98499.53;;;4.86;73.17
53116;BME280;39010;48.088;7.954;2022-12-07T14:05:16;98496.31;;;4.83;73.66
53116;BME280;39010;48.088;7.954;2022-12-07T14:08:00;98505.81;;;4.85;74.69
53116;BME280;39010;48.088;7.954;2022-12-07T14:10:35;98500.44;;;4.67;73.08
53116;BME280;39010;48.088;7.954;2022-12-07T14:15:57;98498.38;;;4.61;72.05
53116;BME280;39010;48.088;7.954;2022-12-07T14:18:44;98496.13;;;4.38;71.62
53116;BME280;39010;48.088;7.954;2022-12-07T14:21:15;98497.81;;;4.30;70.53
53116;BME280;39010;48.088;7.954;2022-12-07T14:23:42;98499.53;;;4.21;70.64
53116;BME280;39010;48.088;7.954;2022-12-07T14:26:19;98503.88;;;4.12;69.05
53116;BME280;39010;48.088;7.954;2022-12-07T14:28:47;98505.16;;;4.08;69.22
53116;BME280;39010;48.088;7.954;2022-12-07T14:31:16;98490.31;;;4.15;69.84
53116;BME280;39010;48.088;7.954;2022-12-07T14:33:51;98490.06;;;4.08;69.38
53116;BME280;39010;48.088;7.954;2022-12-07T14:36:18;98482.53;;;3.94;70.79
53116;BME280;39010;48.088;7.954;2022-12-07T14:38:44;98482.84;;;3.91;70.96
53116;BME280;39010;48.088;7.954;2022-12-07T14:41:12;98489.53;;;3.85;71.04
53116;BME280;39010;48.088;7.954;2022-12-07T14:43:59;98486.72;;;3.96;71.47
53116;BME280;39010;48.088;7.954;2022-12-07T14:46:47;98483.81;;;3.90;72.19
53116;BME280;39010;48.088;7.954;2022-12-07T14:49:14;98489.00;;;3.81;72.29
53116;BME280;39010;48.088;7.954;2022-12-07T14:52:00;98489.25;;;3.98;71.96
53116;BME280;39010;48.088;7.954;2022-12-07T14:54:57;98490.94;;;3.89;71.04
53116;BME280;39010;48.088;7.954;2022-12-07T14:57:24;98489.69;;;3.83;70.79
53116;BME280;39010;48.088;7.954;2022-12-07T14:59:50;98495.00;;;3.83;71.84
53116;BME280;39010;48.088;7.954;2022-12-07T15:02:17;98498.38;;;3.66;73.20
53116;BME280;39010;48.088;7.954;2022-12-07T15:04:46;98499.50;;;3.63;77.42
53116;BME280;39010;48.088;7.954;2022-12-07T15:07:20;98498.13;;;3.39;78.63
53116;BME280;39010;48.088;7.954;2022-12-07T15:09:48;98500.63;;;3.41;78.47
53116;BME280;39010;48.088;7.954;2022-12-07T15:12:14;98499.94;;;3.39;79.03